»·PEaware :: DAL2775 KSFO-KLAX

DAL2775 :: KSFO-KLAX

FLIGHT INFORMATION

Flight Status: Arrived
Operator:
Delta Air Lines
More flights by this operator :: More flights under this callsign
Pilot: Chris H. (15401)
Aircraft: BOEING 737-800
(B738)
More flights by this aircraft type
Origin: KSFO San Francisco Intl
United States
Destination: KLAX Los Angeles Intl
United States
More flights between these airports :: More routes between these airports
Route: WESLA4 EBAYE BURGL IRNMN2
File this flight plan on PilotEdge
Remarks: RMK / POWERED BY SIMBRIEF
Altitude:
(Current/Filed)
35,000ft
Speed:
(Current/Filed)
461kts
Departed: 10-Oct-18 09:00 PM
Arrived: 10-Oct-18 09:59 PM
Distance/Time
Traveled:
293nm/0:59
Distance/Time
To Go:
Arrived

Flight Plot

Page will automatically refresh every two minutes.

Flight plan parsing failed; only flown route is shown


Map Options




Map Legend


Flown Route
Filed Route
Departure Airport
Arrival Airport
Navaid (VOR, NDB)
Fix

Horizontal Profiles

Position Reports

Time Latitude Longitude Heading Altitude Ground
Speed
10-Oct-18 20:39 37.612232 -122.384074 59 21ft 0kts
10-Oct-18 20:40 37.612232 -122.384074 59 21ft 0kts
10-Oct-18 20:41 37.612232 -122.384074 59 21ft 0kts
10-Oct-18 20:42 37.612232 -122.384074 59 21ft 0kts
10-Oct-18 20:43 37.612232 -122.384074 59 21ft 0kts
10-Oct-18 20:44 37.612232 -122.384074 59 21ft 0kts
10-Oct-18 20:45 37.612232 -122.384074 59 21ft 0kts
10-Oct-18 20:46 37.612232 -122.384074 59 21ft 0kts
10-Oct-18 20:47 37.612232 -122.384074 59 21ft 0kts
10-Oct-18 20:48 37.612232 -122.384074 59 21ft 0kts
10-Oct-18 20:49 37.612232 -122.384074 59 21ft 0kts
10-Oct-18 20:50 37.612232 -122.384074 59 21ft 0kts
10-Oct-18 20:51 37.612232 -122.384074 59 21ft 0kts
10-Oct-18 20:52 37.612085 -122.384395 59 21ft 0kts
10-Oct-18 20:53 37.612085 -122.384394 59 21ft 0kts
10-Oct-18 20:54 37.612086 -122.384391 59 21ft 0kts
10-Oct-18 20:55 37.612062 -122.384083 137 21ft 0kts
10-Oct-18 20:56 37.611123 -122.383343 126 20ft 16kts
10-Oct-18 20:57 37.614839 -122.380881 26 21ft 19kts
10-Oct-18 20:58 37.616568 -122.376893 97 21ft 14kts
10-Oct-18 20:59 37.615442 -122.370821 116 21ft 21kts
10-Oct-18 21:00 37.612485 -122.364979 116 21ft 23kts
10-Oct-18 21:01 37.610848 -122.359097 29 21ft 7kts
10-Oct-18 21:02 37.614523 -122.365013 298 21ft 101kts
10-Oct-18 21:03 37.634637 -122.412586 298 1636ft 178kts
10-Oct-18 21:04 37.664450 -122.482045 288 2275ft 243kts
10-Oct-18 21:05 37.627921 -122.540211 171 3245ft 270kts
10-Oct-18 21:06 37.556906 -122.505421 159 6591ft 285kts
10-Oct-18 21:07 37.483624 -122.464671 140 9764ft 295kts
10-Oct-18 21:08 37.422240 -122.384325 130 11767ft 344kts
10-Oct-18 21:09 37.355238 -122.292661 130 14449ft 367kts
10-Oct-18 21:10 37.283508 -122.195453 130 17046ft 391kts
10-Oct-18 21:11 37.207613 -122.092574 130 18878ft 410kts
10-Oct-18 21:12 37.128594 -121.985916 130 21083ft 420kts
10-Oct-18 21:13 37.047388 -121.876879 130 23215ft 437kts
10-Oct-18 21:14 36.962955 -121.763965 131 25175ft 451kts
10-Oct-18 21:15 36.876349 -121.648569 131 26981ft 462kts
10-Oct-18 21:16 36.786853 -121.529751 132 28595ft 473kts
10-Oct-18 21:17 36.695621 -121.409069 132 30025ft 483kts
10-Oct-18 21:18 36.602951 -121.286589 133 31332ft 491kts
10-Oct-18 21:19 36.507948 -121.161990 133 32501ft 498kts
10-Oct-18 21:20 36.413052 -121.036864 132 33921ft 496kts
10-Oct-18 21:21 36.323113 -120.906966 131 34884ft 501kts
10-Oct-18 21:22 36.231847 -120.776305 132 34889ft 501kts
10-Oct-18 21:23 36.140346 -120.645340 132 34889ft 502kts
10-Oct-18 21:24 36.049066 -120.515179 132 34892ft 502kts
10-Oct-18 21:25 35.957137 -120.385080 133 34887ft 503kts
10-Oct-18 21:26 35.861763 -120.259499 142 34887ft 499kts
10-Oct-18 21:27 35.746133 -120.167758 151 34888ft 495kts
10-Oct-18 21:28 35.628294 -120.079305 151 34897ft 496kts
10-Oct-18 21:29 35.510678 -119.990526 151 34896ft 495kts
10-Oct-18 21:30 35.393555 -119.902574 152 34901ft 493kts
10-Oct-18 21:31 35.277109 -119.814331 148 34909ft 495kts
10-Oct-18 21:32 35.167663 -119.711671 145 32382ft 495kts
10-Oct-18 21:33 35.058311 -119.609003 145 29159ft 499kts
10-Oct-18 21:34 34.949011 -119.507601 145 26655ft 485kts
10-Oct-18 21:35 34.825684 -119.396053 146 24284ft 462kts
10-Oct-18 21:36 34.741312 -119.320821 147 22792ft 442kts
10-Oct-18 21:37 34.643551 -119.235521 148 21055ft 420kts
10-Oct-18 21:38 34.551618 -119.156063 147 19623ft 398kts
10-Oct-18 21:39 34.463706 -119.078182 147 17961ft 385kts
10-Oct-18 21:40 34.378152 -119.003660 148 16337ft 373kts
10-Oct-18 21:41 34.296340 -118.930955 146 15116ft 342kts
10-Oct-18 21:42 34.223427 -118.864374 146 14039ft 322kts
10-Oct-18 21:43 34.171617 -118.816839 145 13121ft 314kts
10-Oct-18 21:44 34.096327 -118.736265 139 11272ft 297kts
10-Oct-18 21:45 34.038305 -118.670646 126 9846ft 282kts
10-Oct-18 21:46 34.021729 -118.583221 97 9013ft 248kts
10-Oct-18 21:47 34.015139 -118.507409 94 8227ft 214kts
10-Oct-18 21:48 34.022131 -118.444076 82 6562ft 234kts
10-Oct-18 21:49 34.032195 -118.367541 82 5177ft 230kts
10-Oct-18 21:50 34.041738 -118.291710 82 5000ft 229kts
10-Oct-18 21:51 34.051388 -118.214755 82 4999ft 234kts
10-Oct-18 21:52 34.060839 -118.137665 82 4155ft 228kts
10-Oct-18 21:53 34.050956 -118.069945 158 3547ft 215kts
10-Oct-18 21:54 34.001426 -118.077771 229 3589ft 181kts
10-Oct-18 21:55 33.970195 -118.126821 232 3608ft 185kts
10-Oct-18 21:56 33.957516 -118.186327 263 3296ft 190kts
10-Oct-18 21:57 33.951451 -118.247360 262 2318ft 182kts
10-Oct-18 21:58 33.945307 -118.307467 262 1349ft 174kts
10-Oct-18 21:59 33.939892 -118.360397 262 534ft 146kts
10-Oct-18 22:00 33.935601 -118.402435 263 134ft 59kts
10-Oct-18 22:01 33.936449 -118.412436 328 134ft 13kts
10-Oct-18 22:02 33.937920 -118.408912 83 134ft 12kts
10-Oct-18 22:03 33.938946 -118.405328 352 134ft 12kts
10-Oct-18 22:04 33.940565 -118.405331 64 134ft 0kts
10-Oct-18 22:05 33.940566 -118.405330 64 134ft 0kts
10-Oct-18 22:06 33.940566 -118.405330 64 134ft 0kts

Navigation Log

Ident Type
Flight plan parsing failed, navigation log unavailable